Time;durP1;ratioP1;P1;durP2;ratioP2;P2;SDS_P1;SDS_P2;PMS_P1;PMS_P2;Temp;Humidity;BMP_temperature;BMP_pressure;BME280_temperature;BME280_humidity;BME280_pressure;Samples;Min_cycle;Max_cycle;Signal;HPM_P1;HPM_P2
2022/06/14 00:01:08;;;;;;;9.20;2.88;;;14.30;99.90;;;;;;5046444;28;20571;-76
2022/06/14 00:03:39;;;;;;;4.95;2.50;;;14.10;99.90;;;;;;5048680;28;20210;-76
2022/06/14 00:06:12;;;;;;;4.18;2.50;;;14.20;99.90;;;;;;5051310;28;20209;-76
2022/06/14 00:08:42;;;;;;;4.35;2.38;;;14.20;99.90;;;;;;5043956;28;20218;-76
2022/06/14 00:11:12;;;;;;;4.90;2.70;;;14.10;99.90;;;;;;5052727;28;20190;-76
2022/06/14 00:13:39;;;;;;;5.80;2.78;;;14.20;99.90;;;;;;5043465;28;20671;-76
2022/06/14 00:16:08;;;;;;;4.95;2.55;;;14.20;99.90;;;;;;5046278;28;20242;-76
2022/06/14 00:18:36;;;;;;;4.45;2.70;;;14.10;99.90;;;;;;5046487;28;20218;-76
2022/06/14 00:21:04;;;;;;;3.60;2.22;;;14.10;99.90;;;;;;5047466;28;20214;-76
2022/06/14 00:23:32;;;;;;;6.10;2.75;;;13.90;99.90;;;;;;5044693;28;20191;-75
2022/06/14 00:26:02;;;;;;;5.22;2.38;;;13.70;99.90;;;;;;5052780;28;20191;-75
2022/06/14 00:28:31;;;;;;;3.35;2.40;;;13.50;99.90;;;;;;5041283;28;20218;-75
2022/06/14 00:31:02;;;;;;;4.07;2.40;;;13.40;99.90;;;;;;5043455;28;20214;-75
2022/06/14 00:33:29;;;;;;;5.85;2.40;;;13.50;99.90;;;;;;5050106;28;20206;-75
2022/06/14 00:36:02;;;;;;;5.68;2.45;;;13.40;99.90;;;;;;5047710;28;20229;-75
2022/06/14 00:38:38;;;;;;;4.10;2.42;;;13.20;99.90;;;;;;5042283;28;20219;-75
2022/06/14 00:41:07;;;;;;;6.57;2.08;;;13.50;99.90;;;;;;5051169;28;20692;-75
2022/06/14 00:43:35;;;;;;;6.22;2.72;;;13.70;99.90;;;;;;5070508;28;20207;-75
2022/06/14 00:46:13;;;;;;;6.97;2.40;;;13.90;99.90;;;;;;5047365;28;20222;-75
2022/06/14 00:49:11;;;;;;;6.53;3.00;;;14.10;99.90;;;;;;5063142;28;20214;-75
2022/06/14 00:51:48;;;;;;;6.13;2.92;;;14.00;99.90;;;;;;5029738;28;20198;-75
2022/06/14 00:54:20;;;;;;;2.83;2.20;;;14.00;99.90;;;;;;5051004;28;20194;-75
2022/06/14 00:56:52;;;;;;;6.93;3.20;;;14.00;99.90;;;;;;5053250;28;20217;-75
2022/06/14 00:59:24;;;;;;;8.38;3.10;;;14.10;99.90;;;;;;5045723;28;20203;-75
2022/06/14 01:02:03;;;;;;;6.43;3.17;;;13.90;99.90;;;;;;5053067;28;20203;-76
2022/06/14 01:04:32;;;;;;;5.35;3.28;;;13.60;99.90;;;;;;5051198;28;20214;-75
2022/06/14 01:07:06;;;;;;;5.32;3.00;;;13.80;99.90;;;;;;5052506;28;20221;-75
2022/06/14 01:09:38;;;;;;;7.47;3.30;;;13.50;99.90;;;;;;5050135;28;20281;-75
2022/06/14 01:12:10;;;;;;;5.72;3.70;;;13.50;99.90;;;;;;5037450;28;20207;-75
2022/06/14 01:14:42;;;;;;;6.60;3.30;;;13.40;99.90;;;;;;5057160;28;20207;-75
2022/06/14 01:17:13;;;;;;;5.40;3.50;;;13.40;99.90;;;;;;5049123;28;20226;-75
2022/06/14 01:19:43;;;;;;;6.72;3.83;;;12.90;99.90;;;;;;5042443;28;20233;-75
2022/06/14 01:22:43;;;;;;;7.03;3.90;;;12.90;99.90;;;;;;5041737;28;20214;-75
2022/06/14 01:25:11;;;;;;;4.95;3.13;;;12.70;99.90;;;;;;4992455;28;20203;-75
2022/06/14 01:27:41;;;;;;;7.90;3.97;;;12.60;99.90;;;;;;5041498;28;20700;-75
2022/06/14 01:30:14;;;;;;;4.78;3.10;;;12.70;99.90;;;;;;5044404;28;20199;-75
2022/06/14 01:32:46;;;;;;;7.15;3.75;;;12.90;99.90;;;;;;5051714;28;20664;-75
2022/06/14 01:35:25;;;;;;;6.15;3.30;;;13.00;99.90;;;;;;5059304;28;20199;-75
2022/06/14 01:37:57;;;;;;;7.25;3.40;;;13.20;99.90;;;;;;5059733;28;20718;-75
2022/06/14 01:40:32;;;;;;;5.72;3.63;;;13.20;99.90;;;;;;5062384;28;20194;-75
2022/06/14 01:43:25;;;;;;;5.45;2.65;;;13.00;99.90;;;;;;5048033;28;20194;-75
2022/06/14 01:46:02;;;;;;;5.53;3.30;;;13.00;99.90;;;;;;5032989;28;20195;-75
2022/06/14 01:48:35;;;;;;;5.25;3.13;;;13.20;99.90;;;;;;5045983;28;20214;-75
2022/06/14 01:54:03;;;;;;;7.25;3.20;;;13.20;99.90;;;;;;5047711;28;20182;-75
2022/06/14 01:56:38;;;;;;;7.47;3.50;;;13.40;99.90;;;;;;5047258;28;20202;-75
2022/06/14 01:59:16;;;;;;;6.32;2.97;;;13.30;99.90;;;;;;5047565;28;20202;-75
2022/06/14 02:01:52;;;;;;;5.80;3.25;;;13.30;99.90;;;;;;5048669;28;20202;-75
2022/06/14 02:04:39;;;;;;;5.07;3.17;;;13.30;99.90;;;;;;5051635;28;20197;-75
2022/06/14 02:07:24;;;;;;;5.43;4.20;;;13.20;99.90;;;;;;5053403;28;20198;-75
2022/06/14 02:09:59;;;;;;;8.18;4.10;;;13.10;99.90;;;;;;5044958;28;20186;-75
2022/06/14 02:12:36;;;;;;;5.93;4.20;;;13.20;99.90;;;;;;5041645;28;20252;-75
2022/06/14 02:15:10;;;;;;;8.18;5.30;;;13.20;99.90;;;;;;5047599;28;20281;-75
2022/06/14 02:17:43;;;;;;;6.45;4.45;;;13.20;99.90;;;;;;5041265;28;20227;-75
2022/06/14 02:20:16;;;;;;;6.95;4.88;;;13.30;99.90;;;;;;5057841;28;20195;-75
2022/06/14 02:22:48;;;;;;;6.95;4.43;;;13.30;99.90;;;;;;5037980;28;20588;-75
2022/06/14 02:25:23;;;;;;;8.00;4.70;;;13.20;99.90;;;;;;5035888;28;20202;-75
2022/06/14 02:27:55;;;;;;;5.75;3.63;;;13.30;99.90;;;;;;5051927;28;20201;-75
2022/06/14 02:31:14;;;;;;;4.43;3.10;;;13.30;99.90;;;;;;5047732;28;20207;-75
2022/06/14 02:33:46;;;;;;;6.20;3.30;;;13.00;99.90;;;;;;5040851;28;20194;-75
2022/06/14 02:36:18;;;;;;;6.55;3.58;;;12.70;99.90;;;;;;5056432;28;20660;-75
2022/06/14 02:38:50;;;;;;;7.03;3.55;;;12.60;99.90;;;;;;5042860;28;20225;-75
2022/06/14 02:41:22;;;;;;;8.40;4.28;;;12.50;99.90;;;;;;5041043;28;20203;-75
2022/06/14 02:43:57;;;;;;;7.78;3.70;;;12.30;99.90;;;;;;5049811;28;20206;-75
2022/06/14 02:46:32;;;;;;;3.90;3.50;;;12.30;99.90;;;;;;5048712;28;20294;-75
2022/06/14 02:49:05;;;;;;;8.70;3.58;;;12.40;99.90;;;;;;5065431;28;20225;-75
2022/06/14 02:51:40;;;;;;;6.88;3.88;;;12.50;99.90;;;;;;5049440;28;20199;-75
2022/06/14 02:54:14;;;;;;;4.93;4.03;;;12.50;99.90;;;;;;5042628;28;20556;-75
2022/06/14 02:56:48;;;;;;;8.63;4.20;;;12.30;99.90;;;;;;5037389;28;20205;-75
2022/06/14 02:59:23;;;;;;;6.65;5.40;;;12.40;99.90;;;;;;5043861;28;20561;-75
2022/06/14 03:01:54;;;;;;;9.93;5.55;;;12.40;99.90;;;;;;5041208;28;21018;-75
2022/06/14 03:04:28;;;;;;;6.20;4.75;;;12.30;99.90;;;;;;5046039;28;20190;-75
2022/06/14 03:07:00;;;;;;;6.65;5.22;;;12.20;99.90;;;;;;5049734;28;20209;-75
2022/06/14 03:10:20;;;;;;;9.70;6.05;;;12.20;99.90;;;;;;5042557;28;20198;-75
2022/06/14 03:12:58;;;;;;;9.60;6.15;;;12.20;99.90;;;;;;5045345;28;20199;-75
2022/06/14 03:15:36;;;;;;;6.40;5.00;;;12.20;99.90;;;;;;5048573;28;20206;-75
2022/06/14 03:18:16;;;;;;;6.15;4.65;;;12.20;99.90;;;;;;5043063;28;20214;-75
2022/06/14 03:20:50;;;;;;;7.63;4.80;;;12.10;99.90;;;;;;5038829;28;20669;-75
2022/06/14 03:23:41;;;;;;;6.72;5.18;;;12.30;99.90;;;;;;5043879;28;20208;-75
2022/06/14 03:26:16;;;;;;;7.10;4.75;;;12.00;99.90;;;;;;5042769;28;20199;-75
2022/06/14 03:28:50;;;;;;;7.72;4.70;;;12.20;99.90;;;;;;5040465;28;20211;-75
2022/06/14 03:31:27;;;;;;;7.60;4.95;;;12.40;99.90;;;;;;5039487;28;20202;-76
2022/06/14 03:34:01;;;;;;;6.00;4.85;;;12.40;99.90;;;;;;5051895;28;20190;-77
2022/06/14 03:36:29;;;;;;;6.38;4.65;;;12.30;99.90;;;;;;5053283;28;20197;-77
2022/06/14 03:39:03;;;;;;;6.30;4.47;;;12.00;99.90;;;;;;5042362;28;20221;-76
2022/06/14 03:41:34;;;;;;;6.70;5.07;;;12.10;99.90;;;;;;5061977;28;20201;-77
2022/06/14 03:44:05;;;;;;;9.57;5.70;;;12.60;99.90;;;;;;5055320;28;20213;-76
2022/06/14 03:46:35;;;;;;;9.02;5.20;;;12.50;99.90;;;;;;5043694;28;20199;-76
2022/06/14 03:49:06;;;;;;;7.13;5.40;;;12.20;99.90;;;;;;5063255;28;20214;-76
2022/06/14 03:51:46;;;;;;;10.32;5.82;;;12.20;99.90;;;;;;5052471;28;20201;-76
2022/06/14 03:57:59;;;;;;;9.32;5.03;;;12.40;99.90;;;;;;5047454;28;20214;-76
2022/06/14 04:00:38;;;;;;;7.20;4.80;;;12.30;99.90;;;;;;5051722;28;20559;-76
2022/06/14 04:03:40;;;;;;;8.02;5.35;;;12.60;99.90;;;;;;5047132;28;20201;-77
2022/06/14 04:06:17;;;;;;;5.80;4.60;;;12.70;99.90;;;;;;5048192;28;20206;-77
2022/06/14 04:09:11;;;;;;;10.43;4.90;;;12.80;99.90;;;;;;5039468;28;20218;-76
2022/06/14 04:11:50;;;;;;;5.85;4.68;;;12.80;99.90;;;;;;5049400;28;20576;-76
2022/06/14 04:14:42;;;;;;;6.97;4.43;;;12.80;99.90;;;;;;5049082;28;20191;-76
2022/06/14 04:17:22;;;;;;;6.65;5.53;;;12.70;99.90;;;;;;5049248;28;20222;-76
2022/06/14 04:20:02;;;;;;;9.45;5.65;;;12.70;99.90;;;;;;5047771;28;20206;-76
2022/06/14 04:22:41;;;;;;;7.10;5.35;;;12.80;99.90;;;;;;5052642;28;20206;-76
2022/06/14 04:25:13;;;;;;;6.80;4.93;;;12.90;99.90;;;;;;5054538;28;20213;-77
2022/06/14 04:27:46;;;;;;;5.13;4.35;;;12.60;99.90;;;;;;5045021;28;20225;-76
2022/06/14 04:30:18;;;;;;;8.15;4.63;;;12.60;99.90;;;;;;5049611;28;20659;-76
2022/06/14 04:33:08;;;;;;;8.80;4.40;;;12.40;99.90;;;;;;5051435;28;20194;-76
2022/06/14 04:35:42;;;;;;;9.05;4.82;;;12.20;99.90;;;;;;5068062;28;20191;-76
2022/06/14 04:38:15;;;;;;;7.75;4.82;;;12.30;99.90;;;;;;5052959;28;20581;-76
2022/06/14 04:40:57;;;;;;;10.02;4.40;;;12.40;99.90;;;;;;5039323;28;20193;-76
2022/06/14 04:43:30;;;;;;;8.00;5.13;;;12.60;99.90;;;;;;5051566;28;20269;-76
2022/06/14 04:46:03;;;;;;;10.75;5.53;;;12.50;99.90;;;;;;5048496;28;20198;-76
2022/06/14 04:48:37;;;;;;;6.82;4.70;;;12.80;99.90;;;;;;5051923;28;20221;-76
2022/06/14 04:51:12;;;;;;;11.57;5.13;;;13.00;99.90;;;;;;5050147;28;20202;-76
2022/06/14 04:53:46;;;;;;;7.07;4.75;;;13.20;99.90;;;;;;5062758;28;20201;-75
2022/06/14 04:56:21;;;;;;;7.85;5.00;;;13.30;99.90;;;;;;5054086;28;20194;-76
2022/06/14 04:58:53;;;;;;;6.95;5.32;;;13.40;99.90;;;;;;5057831;28;20212;-76
2022/06/14 05:01:25;;;;;;;8.55;5.50;;;13.40;99.90;;;;;;5054077;28;20201;-77
2022/06/14 05:03:59;;;;;;;8.38;6.00;;;13.50;99.90;;;;;;5050722;28;20193;-77
2022/06/14 05:06:39;;;;;;;10.40;5.35;;;13.60;99.90;;;;;;5043453;28;20202;-76
2022/06/14 05:09:11;;;;;;;8.95;5.28;;;13.70;99.90;;;;;;5049465;28;20771;-76
2022/06/14 05:12:17;;;;;;;9.30;5.68;;;13.60;99.90;;;;;;5043803;28;20194;-76
2022/06/14 05:14:59;;;;;;;8.10;5.82;;;13.80;99.90;;;;;;5038581;28;20194;-75
2022/06/14 05:17:32;;;;;;;5.05;4.10;;;14.00;99.90;;;;;;5051068;28;20219;-76
2022/06/14 05:20:08;;;;;;;8.15;5.07;;;15.50;99.90;;;;;;5050412;28;20218;-76
2022/06/14 05:22:42;;;;;;;8.95;5.00;;;16.10;99.90;;;;;;5042869;28;20199;-76
2022/06/14 05:25:12;;;;;;;11.48;4.88;;;15.70;99.90;;;;;;5046642;28;20199;-76
2022/06/14 05:28:01;;;;;;;9.40;5.53;;;15.60;99.90;;;;;;5051799;28;20223;-76
2022/06/14 05:30:37;;;;;;;7.75;4.50;;;15.60;99.90;;;;;;5048345;28;20198;-77
2022/06/14 05:33:29;;;;;;;6.22;4.38;;;16.10;99.90;;;;;;5049383;28;20205;-76
2022/06/14 05:36:04;;;;;;;8.80;4.32;;;15.80;99.90;;;;;;5044062;28;20217;-76
2022/06/14 05:38:48;;;;;;;10.65;4.78;;;15.80;99.90;;;;;;5048569;28;20725;-75
2022/06/14 05:41:19;;;;;;;7.55;4.70;;;15.30;99.90;;;;;;5043566;28;20195;-76
2022/06/14 05:43:50;;;;;;;8.50;4.28;;;15.70;99.90;;;;;;5049438;28;20198;-77
2022/06/14 05:46:25;;;;;;;7.78;5.53;;;15.60;99.90;;;;;;5050392;28;20206;-78
2022/06/14 05:48:58;;;;;;;15.75;6.90;;;15.50;99.90;;;;;;5049713;28;20221;-77
2022/06/14 05:51:33;;;;;;;7.88;4.65;;;15.50;99.90;;;;;;5048358;28;20205;-78
2022/06/14 05:54:06;;;;;;;11.18;5.13;;;15.60;99.90;;;;;;5043282;28;20187;-78
2022/06/14 05:56:39;;;;;;;13.07;5.30;;;15.70;99.90;;;;;;5045435;28;20198;-77
2022/06/14 05:59:10;;;;;;;9.75;4.32;;;16.20;99.90;;;;;;5043195;28;20211;-77
2022/06/14 06:01:56;;;;;;;7.10;3.67;;;16.40;99.90;;;;;;5046277;28;20198;-77
2022/06/14 06:04:30;;;;;;;8.27;4.15;;;17.10;99.90;;;;;;5050280;28;20209;-78
2022/06/14 06:07:02;;;;;;;8.98;4.57;;;16.80;99.90;;;;;;5047961;28;20198;-77
2022/06/14 06:09:34;;;;;;;8.40;4.07;;;16.80;99.90;;;;;;5059569;28;20194;-76
2022/06/14 06:12:07;;;;;;;9.57;3.90;;;16.20;99.90;;;;;;5054428;28;20222;-79
2022/06/14 06:14:37;;;;;;;9.40;3.78;;;16.00;99.90;;;;;;5046012;28;20194;-78
2022/06/14 06:17:11;;;;;;;10.05;4.43;;;15.80;99.90;;;;;;5049783;28;20222;-79
2022/06/14 06:20:03;;;;;;;10.57;4.18;;;15.70;99.90;;;;;;5052292;28;20210;-79
2022/06/14 06:22:36;;;;;;;6.85;4.07;;;15.70;99.90;;;;;;5046431;28;20203;-79
2022/06/14 06:25:09;;;;;;;8.25;4.82;;;15.90;99.90;;;;;;5037998;28;20205;-78
2022/06/14 06:27:41;;;;;;;8.32;4.57;;;15.80;99.90;;;;;;5044064;28;20561;-78
2022/06/14 06:30:14;;;;;;;11.82;5.30;;;15.60;99.90;;;;;;5052090;28;20190;-78
2022/06/14 06:32:42;;;;;;;10.95;5.38;;;15.50;99.90;;;;;;5034215;28;20203;-78
2022/06/14 06:35:12;;;;;;;7.57;4.57;;;15.50;99.90;;;;;;5039033;28;20211;-78
2022/06/14 06:37:46;;;;;;;10.82;5.25;;;15.50;99.90;;;;;;5051304;28;20218;-78
2022/06/14 06:40:19;;;;;;;8.32;5.13;;;15.50;99.90;;;;;;5052915;28;20206;-79
2022/06/14 06:42:49;;;;;;;12.20;5.28;;;15.70;99.90;;;;;;5051220;28;20205;-78
2022/06/14 06:45:20;;;;;;;9.77;4.38;;;15.90;99.90;;;;;;5051799;28;20194;-78
2022/06/14 06:47:54;;;;;;;13.57;4.88;;;16.10;99.90;;;;;;5052467;28;20214;-78
2022/06/14 06:50:24;;;;;;;8.48;4.75;;;16.00;99.90;;;;;;5051172;28;20201;-78
2022/06/14 06:53:24;;;;;;;7.47;3.60;;;15.80;99.90;;;;;;5051427;28;20210;-78
2022/06/14 06:55:57;;;;;;;8.13;3.10;;;15.90;99.90;;;;;;5052925;28;20186;-78
2022/06/14 06:58:27;;;;;;;8.05;4.40;;;16.00;99.90;;;;;;5051118;28;20222;-78
2022/06/14 07:00:57;;;;;;;8.10;4.00;;;16.10;99.90;;;;;;5051667;28;20233;-78
2022/06/14 07:03:36;;;;;;;7.90;3.40;;;16.10;99.90;;;;;;5051482;28;20203;-79
2022/06/14 07:06:06;;;;;;;6.57;3.50;;;16.10;99.90;;;;;;5051877;28;20198;-78
2022/06/14 07:08:44;;;;;;;5.72;3.38;;;16.10;99.90;;;;;;5050877;28;20233;-78
2022/06/14 07:11:16;;;;;;;5.18;2.70;;;16.10;99.90;;;;;;5051811;28;20189;-78
2022/06/14 07:13:51;;;;;;;5.72;2.60;;;16.30;99.90;;;;;;5051105;28;20210;-78
2022/06/14 07:16:28;;;;;;;5.72;3.03;;;16.10;99.90;;;;;;5050827;28;20205;-78
2022/06/14 07:19:05;;;;;;;7.95;2.58;;;16.20;99.90;;;;;;5049852;28;20221;-78
2022/06/14 07:21:38;;;;;;;8.27;2.90;;;16.10;99.90;;;;;;5042211;28;20202;-78
2022/06/14 07:24:13;;;;;;;4.88;2.38;;;16.10;99.90;;;;;;5047762;28;20645;-78
2022/06/14 07:26:49;;;;;;;7.28;2.92;;;16.40;99.90;;;;;;5032483;28;20183;-78
2022/06/14 07:29:20;;;;;;;9.77;3.00;;;16.60;99.90;;;;;;5043957;28;20564;-78
2022/06/14 07:31:53;;;;;;;7.00;3.08;;;16.70;99.90;;;;;;5050955;28;20205;-78
2022/06/14 07:34:21;;;;;;;9.82;3.55;;;16.60;99.90;;;;;;5050851;28;20198;-78
2022/06/14 07:36:59;;;;;;;7.00;3.05;;;16.70;99.90;;;;;;5051122;28;20199;-78
2022/06/14 07:39:37;;;;;;;9.70;3.33;;;16.90;99.90;;;;;;5050459;28;20210;-78
2022/06/14 07:42:17;;;;;;;7.75;3.72;;;16.80;99.90;;;;;;5052173;28;20190;-78
2022/06/14 07:44:54;;;;;;;7.93;3.90;;;16.80;99.90;;;;;;5051630;28;20551;-78
2022/06/14 07:47:30;;;;;;;8.40;3.60;;;16.90;99.90;;;;;;5052336;28;20206;-78
2022/06/14 07:50:04;;;;;;;9.50;4.35;;;17.00;99.90;;;;;;5052060;28;20575;-78
2022/06/14 07:52:37;;;;;;;8.70;4.47;;;17.10;99.50;;;;;;5051047;28;20199;-78
2022/06/14 07:55:15;;;;;;;5.68;3.80;;;17.00;99.90;;;;;;5052260;28;20178;-79
2022/06/14 07:58:00;;;;;;;9.80;3.72;;;17.00;99.90;;;;;;5051787;28;20221;-79
2022/06/14 08:03:23;;;;;;;9.18;4.18;;;17.10;99.90;;;;;;5052046;28;20182;-79
2022/06/14 08:05:54;;;;;;;6.47;3.72;;;16.90;99.90;;;;;;5051368;28;20198;-79
2022/06/14 08:08:25;;;;;;;5.63;4.07;;;16.70;99.90;;;;;;5050473;28;20241;-78
2022/06/14 08:10:58;;;;;;;5.50;3.83;;;16.70;99.90;;;;;;5051985;28;20186;-79
2022/06/14 08:13:30;;;;;;;7.05;4.60;;;16.70;99.90;;;;;;5052031;28;20175;-78
2022/06/14 08:16:02;;;;;;;9.00;4.57;;;16.60;99.90;;;;;;5051958;28;20511;-78
2022/06/14 08:18:36;;;;;;;8.23;3.80;;;16.50;99.90;;;;;;5047903;28;20223;-79
2022/06/14 08:21:09;;;;;;;8.07;4.72;;;16.70;99.90;;;;;;5048589;28;20229;-79
2022/06/14 08:23:42;;;;;;;10.30;5.68;;;16.70;99.90;;;;;;5036654;28;20187;-79
2022/06/14 08:26:18;;;;;;;8.65;5.05;;;16.60;99.90;;;;;;5035366;28;20203;-79
2022/06/14 08:28:50;;;;;;;9.63;4.93;;;16.80;99.90;;;;;;5035864;28;20230;-79
2022/06/14 08:31:22;;;;;;;10.65;4.35;;;16.60;99.90;;;;;;5051310;28;20198;-79
2022/06/14 08:33:56;;;;;;;10.80;5.38;;;16.70;99.90;;;;;;5051447;28;20575;-79
2022/06/14 08:36:27;;;;;;;6.80;4.35;;;16.80;99.90;;;;;;5051192;28;20199;-78
2022/06/14 08:39:01;;;;;;;7.50;4.25;;;17.00;99.90;;;;;;5045838;28;20222;-78
2022/06/14 08:41:46;;;;;;;9.88;4.80;;;17.00;99.90;;;;;;5056173;28;20198;-78
2022/06/14 08:44:19;;;;;;;10.70;4.88;;;16.80;99.90;;;;;;5054941;28;20193;-78
2022/06/14 08:47:01;;;;;;;8.65;4.90;;;16.80;99.90;;;;;;5053715;28;20186;-78
2022/06/14 08:49:44;;;;;;;9.98;5.13;;;17.10;99.90;;;;;;5054073;28;20205;-78
2022/06/14 08:52:50;;;;;;;8.63;5.03;;;17.20;99.90;;;;;;5054007;28;20190;-79
2022/06/14 08:55:53;;;;;;;10.88;5.28;;;17.30;98.10;;;;;;5053741;28;20193;-79
2022/06/14 08:58:41;;;;;;;8.35;5.00;;;17.40;96.50;;;;;;5051047;28;20217;-78
2022/06/14 09:01:19;;;;;;;10.07;5.32;;;17.20;97.60;;;;;;5053925;28;20221;-78
2022/06/14 09:04:27;;;;;;;9.30;5.75;;;17.10;97.00;;;;;;5069336;28;20190;-79
2022/06/14 09:07:39;;;;;;;11.70;4.93;;;17.10;96.90;;;;;;5040058;28;20202;-79
2022/06/14 09:10:20;;;;;;;7.03;5.07;;;17.40;97.20;;;;;;5033758;28;20195;-79
2022/06/14 09:13:23;;;;;;;7.40;4.57;;;17.60;97.80;;;;;;5050161;28;20199;-78
2022/06/14 09:16:33;;;;;;;9.13;5.13;;;17.60;97.30;;;;;;5042654;28;20203;-79
2022/06/14 09:19:14;;;;;;;10.75;5.03;;;17.50;97.00;;;;;;5036155;28;20223;-79
2022/06/14 09:21:58;;;;;;;9.23;4.43;;;17.50;97.80;;;;;;5038936;28;20215;-79
2022/06/14 09:24:51;;;;;;;9.38;4.75;;;17.60;97.20;;;;;;5046120;28;20202;-79
2022/06/14 09:27:40;;;;;;;11.40;5.82;;;17.80;96.90;;;;;;5057400;28;20331;-79
2022/06/14 09:30:35;;;;;;;9.38;5.18;;;17.60;96.50;;;;;;5055740;28;20198;-79
2022/06/14 09:33:44;;;;;;;11.93;6.28;;;17.70;97.00;;;;;;5055164;28;20198;-79
2022/06/14 09:36:49;;;;;;;8.13;5.55;;;17.70;97.20;;;;;;5037477;28;20199;-79
2022/06/14 09:39:54;;;;;;;6.78;5.75;;;17.90;96.70;;;;;;4983543;28;20213;-80
2022/06/14 09:42:47;;;;;;;9.13;5.82;;;18.10;95.90;;;;;;5038001;28;20190;-79
2022/06/14 09:45:45;;;;;;;8.13;5.10;;;18.20;95.90;;;;;;5046166;28;20206;-79
2022/06/14 09:48:43;;;;;;;8.63;5.75;;;18.50;95.70;;;;;;5040103;28;20219;-79
2022/06/14 09:51:58;;;;;;;9.60;6.00;;;18.30;94.80;;;;;;5051026;28;20694;-79
2022/06/14 09:55:04;;;;;;;7.90;5.45;;;18.10;94.40;;;;;;5041048;28;20198;-80
2022/06/14 09:58:06;;;;;;;9.30;5.00;;;18.20;94.80;;;;;;5052511;28;20229;-78
2022/06/14 10:00:44;;;;;;;6.22;5.13;;;18.30;94.10;;;;;;5052963;28;20217;-78
2022/06/14 10:03:50;;;;;;;7.22;5.38;;;18.10;93.80;;;;;;5069424;28;20198;-79
2022/06/14 10:06:48;;;;;;;7.93;5.40;;;18.20;94.50;;;;;;5047309;28;20206;-79
2022/06/14 10:09:46;;;;;;;7.72;4.80;;;18.60;93.80;;;;;;5052549;28;20652;-79
2022/06/14 10:12:38;;;;;;;7.05;5.28;;;18.60;93.90;;;;;;5053912;28;20181;-79
2022/06/14 10:15:14;;;;;;;9.52;5.25;;;18.50;93.60;;;;;;5051997;28;20668;-79
2022/06/14 10:17:59;;;;;;;9.52;5.72;;;18.40;93.50;;;;;;5052863;28;20221;-79
2022/06/14 10:20:44;;;;;;;7.40;5.20;;;18.30;93.40;;;;;;5049906;28;20676;-79
2022/06/14 10:23:41;;;;;;;6.28;5.03;;;18.40;93.10;;;;;;5040780;28;20198;-78
2022/06/14 10:29:32;;;;;;;8.82;5.30;;;18.40;92.90;;;;;;5032141;28;20194;-79
2022/06/14 10:32:22;;;;;;;8.13;5.45;;;18.60;93.20;;;;;;5047004;28;20666;-79
2022/06/14 10:34:56;;;;;;;9.63;5.55;;;18.80;93.50;;;;;;5048239;28;20195;-79
2022/06/14 10:37:41;;;;;;;8.43;5.43;;;19.00;93.50;;;;;;5032096;28;20214;-79
2022/06/14 10:40:29;;;;;;;8.25;5.32;;;19.30;92.20;;;;;;5033642;28;20186;-79
2022/06/14 10:43:04;;;;;;;9.57;5.97;;;19.10;92.60;;;;;;5032069;28;20207;-79
2022/06/14 10:45:38;;;;;;;6.60;5.13;;;19.20;90.80;;;;;;5047421;28;20202;-79
2022/06/14 10:48:33;;;;;;;10.55;5.50;;;19.10;91.40;;;;;;5051522;28;20222;-79
2022/06/14 10:51:22;;;;;;;9.02;5.97;;;19.40;92.10;;;;;;5052565;28;20203;-78
2022/06/14 10:53:56;;;;;;;10.15;5.75;;;19.50;91.10;;;;;;5051607;28;20209;-79
2022/06/14 10:56:40;;;;;;;8.98;5.88;;;19.30;91.20;;;;;;5068629;28;20198;-79
2022/06/14 10:59:53;;;;;;;9.60;6.18;;;19.00;91.80;;;;;;5051401;28;20221;-79
2022/06/14 11:02:37;;;;;;;7.80;5.38;;;19.20;91.60;;;;;;5042165;28;20659;-79
2022/06/14 11:05:14;;;;;;;8.80;5.80;;;19.30;91.40;;;;;;5051559;28;20202;-79
2022/06/14 11:08:00;;;;;;;6.75;5.18;;;19.40;91.10;;;;;;5050603;28;20226;-79
2022/06/14 11:10:54;;;;;;;8.73;5.35;;;19.50;91.20;;;;;;5053127;28;20182;-79
2022/06/14 11:13:48;;;;;;;8.00;5.70;;;19.80;90.90;;;;;;5051370;28;20194;-78
2022/06/14 11:16:24;;;;;;;7.40;5.10;;;20.00;91.00;;;;;;5067444;28;20198;-79
2022/06/14 11:19:12;;;;;;;8.70;5.90;;;20.00;90.20;;;;;;5051273;28;20214;-79
2022/06/14 11:22:08;;;;;;;7.15;6.43;;;20.00;90.00;;;;;;5043716;28;20210;-79
2022/06/14 11:24:41;;;;;;;9.10;5.90;;;20.10;88.30;;;;;;5062095;28;20213;-79
2022/06/14 11:27:22;;;;;;;8.75;5.80;;;20.00;87.90;;;;;;5068372;28;20233;-79
2022/06/14 11:30:00;;;;;;;9.75;5.90;;;20.30;86.60;;;;;;5052091;28;20190;-79
2022/06/14 11:32:32;;;;;;;7.75;5.40;;;20.30;89.90;;;;;;5051635;28;20198;-79
2022/06/14 11:35:14;;;;;;;7.15;5.32;;;20.20;85.80;;;;;;5051895;28;20201;-79
2022/06/14 11:37:57;;;;;;;8.55;5.32;;;20.50;86.30;;;;;;5051208;28;20222;-79
2022/06/14 11:40:27;;;;;;;8.30;5.35;;;20.70;85.90;;;;;;5051747;28;20198;-79
2022/06/14 11:43:11;;;;;;;11.52;5.80;;;21.00;81.90;;;;;;5051802;28;20217;-80
2022/06/14 11:45:47;;;;;;;8.10;5.60;;;21.00;77.90;;;;;;5062808;28;20209;-81
2022/06/14 11:48:24;;;;;;;9.68;5.20;;;21.10;77.90;;;;;;5063169;28;20220;-82
2022/06/14 11:50:57;;;;;;;8.38;5.38;;;21.20;78.50;;;;;;5062957;28;20197;-81
2022/06/14 11:53:44;;;;;;;8.77;4.85;;;21.20;81.30;;;;;;5059826;28;20210;-81
2022/06/14 11:56:21;;;;;;;6.75;5.30;;;21.10;81.40;;;;;;5052070;28;20200;-81
2022/06/14 11:59:20;;;;;;;8.43;4.53;;;21.00;78.40;;;;;;5054822;28;20228;-79
2022/06/14 12:02:03;;;;;;;8.65;5.30;;;21.00;78.00;;;;;;5054064;28;20233;-79
2022/06/14 12:04:41;;;;;;;7.65;4.57;;;20.80;76.70;;;;;;5054550;28;20202;-79
2022/06/14 12:07:17;;;;;;;9.10;5.43;;;20.90;75.30;;;;;;5046894;28;20215;-79
2022/06/14 12:10:08;;;;;;;6.15;5.00;;;20.40;76.90;;;;;;5045620;28;20205;-82
2022/06/14 12:12:58;;;;;;;8.52;5.55;;;21.10;74.90;;;;;;5052881;28;20195;-81
2022/06/14 12:15:35;;;;;;;7.10;4.35;;;21.00;75.00;;;;;;5054279;28;20202;-79
2022/06/14 12:18:07;;;;;;;9.93;5.35;;;21.50;77.70;;;;;;5051462;28;20704;-79
2022/06/14 12:20:42;;;;;;;6.07;4.82;;;21.80;75.50;;;;;;5054555;28;20205;-79
2022/06/14 12:23:16;;;;;;;8.00;5.03;;;22.10;73.40;;;;;;5053095;28;20229;-79
2022/06/14 12:28:41;;;;;;;8.13;5.57;;;22.40;71.60;;;;;;5054567;28;20215;-79
2022/06/14 12:31:16;;;;;;;7.22;5.15;;;22.20;71.60;;;;;;5054553;28;20198;-79
2022/06/14 12:33:47;;;;;;;7.68;5.20;;;22.30;72.70;;;;;;5055695;28;20193;-79
2022/06/14 12:36:26;;;;;;;7.78;4.88;;;22.30;72.50;;;;;;5054513;28;20194;-79
2022/06/14 12:38:57;;;;;;;6.18;4.50;;;22.10;73.50;;;;;;5054284;28;20221;-79
2022/06/14 12:41:31;;;;;;;7.18;4.90;;;22.40;74.00;;;;;;5070723;22;20219;-81
2022/06/14 12:44:13;;;;;;;8.15;4.70;;;22.30;73.60;;;;;;5023842;28;20206;-81
2022/06/14 12:46:48;;;;;;;7.03;4.82;;;22.90;72.50;;;;;;5016008;28;20210;-80
2022/06/14 12:49:21;;;;;;;8.05;5.20;;;23.30;70.70;;;;;;5016141;28;20206;-80
2022/06/14 12:51:54;;;;;;;6.20;4.63;;;23.10;71.60;;;;;;4999915;28;20222;-81
2022/06/14 12:54:33;;;;;;;8.10;4.10;;;23.60;67.40;;;;;;5001278;28;20203;-80
2022/06/14 12:57:11;;;;;;;4.95;4.38;;;23.90;65.30;;;;;;5000780;28;20187;-81
2022/06/14 12:59:45;;;;;;;7.55;4.97;;;23.80;64.50;;;;;;4996936;28;20211;-81
2022/06/14 13:02:19;;;;;;;9.13;5.20;;;23.20;67.40;;;;;;5007730;28;20692;-80
2022/06/14 13:04:50;;;;;;;7.35;5.20;;;22.80;69.40;;;;;;4999884;28;20210;-81
2022/06/14 13:07:30;;;;;;;10.35;5.60;;;23.20;67.80;;;;;;5019229;28;20203;-80
2022/06/14 13:10:11;;;;;;;7.80;5.13;;;23.00;65.50;;;;;;5038051;28;20198;-80
2022/06/14 13:12:54;;;;;;;6.68;5.32;;;22.70;64.90;;;;;;5015322;28;20219;-80
2022/06/14 13:15:28;;;;;;;8.20;5.03;;;22.70;63.00;;;;;;5019419;28;20210;-80
2022/06/14 13:18:12;;;;;;;6.13;4.68;;;23.30;63.40;;;;;;5020169;28;20194;-81
2022/06/14 13:20:46;;;;;;;6.75;5.15;;;23.80;60.70;;;;;;5015890;28;20200;-81
2022/06/14 13:23:29;;;;;;;8.38;5.43;;;23.20;60.80;;;;;;5015683;28;20226;-81
2022/06/14 13:26:17;;;;;;;5.93;4.55;;;22.80;65.90;;;;;;5000043;28;20200;-80
2022/06/14 13:29:03;;;;;;;8.45;4.90;;;22.90;65.00;;;;;;5015454;28;20199;-80
2022/06/14 13:31:42;;;;;;;7.20;4.25;;;22.80;65.60;;;;;;5010293;28;20219;-82
2022/06/14 13:34:27;;;;;;;6.82;5.20;;;23.30;65.90;;;;;;5019111;28;20191;-81
2022/06/14 13:37:05;;;;;;;8.80;4.40;;;23.50;63.90;;;;;;5019773;28;20199;-80
2022/06/14 13:39:38;;;;;;;7.57;4.78;;;23.90;62.60;;;;;;5009321;28;20199;-80
2022/06/14 13:42:11;;;;;;;7.63;4.50;;;23.60;61.80;;;;;;4999810;28;20230;-84
2022/06/14 13:44:45;;;;;;;9.32;4.78;;;23.90;62.00;;;;;;5000812;28;20200;-81
2022/06/14 13:47:17;;;;;;;6.32;4.18;;;23.60;61.00;;;;;;4999508;28;20199;-81
2022/06/14 13:49:52;;;;;;;6.18;3.60;;;24.00;62.90;;;;;;4999290;28;20200;-80
2022/06/14 13:52:25;;;;;;;7.22;3.90;;;24.30;62.30;;;;;;5013552;28;20215;-81
2022/06/14 13:55:00;;;;;;;5.55;3.10;;;24.40;61.30;;;;;;5011249;28;20215;-81
2022/06/14 13:57:33;;;;;;;5.63;4.10;;;24.70;58.00;;;;;;5012117;28;20215;-81
2022/06/14 14:00:06;;;;;;;5.55;3.55;;;24.50;55.60;;;;;;4997186;28;20204;-81